createdAt,value
2018-02-08T00:03:06.000Z,31.58
2018-02-08T00:13:06.000Z,31.75
2018-02-08T00:23:06.000Z,31.692
2018-02-08T00:33:06.000Z,31.473
2018-02-08T00:43:06.000Z,31.556
2018-02-08T00:53:06.000Z,31.52
2018-02-08T01:03:06.000Z,31.669
2018-02-08T01:13:06.000Z,31.633
2018-02-08T01:23:06.000Z,31.577
2018-02-08T01:33:06.000Z,31.258
2018-02-08T01:43:06.000Z,30.821
2018-02-08T01:53:06.000Z,30.642
2018-02-08T02:03:06.000Z,30.648
2018-02-08T02:13:06.000Z,30.785
2018-02-08T02:23:06.000Z,30.751
2018-02-08T02:33:06.000Z,30.911
2018-02-08T02:43:07.000Z,31.041
2018-02-08T02:53:07.000Z,31.192
2018-02-08T03:03:07.000Z,31.3
2018-02-08T03:13:07.000Z,31.386
2018-02-08T03:23:07.000Z,31.558
2018-02-08T03:33:07.000Z,31.59
2018-02-08T03:43:07.000Z,31.795
2018-02-08T03:53:07.000Z,31.892
2018-02-08T04:03:07.000Z,31.914
2018-02-08T04:13:07.000Z,31.945
2018-02-08T04:23:07.000Z,32.042
2018-02-08T04:33:07.000Z,32.353
2018-02-08T04:43:07.000Z,32.193
2018-02-08T04:53:07.000Z,32.407
2018-02-08T05:03:07.000Z,32.417
2018-02-08T05:13:07.000Z,32.589
2018-02-08T05:23:07.000Z,32.761
2018-02-08T05:33:07.000Z,32.621
2018-02-08T05:43:07.000Z,32.686
2018-02-08T05:53:07.000Z,32.623
2018-02-08T06:03:07.000Z,32.827
2018-02-08T06:13:07.000Z,32.742
2018-02-08T06:23:07.000Z,32.677
2018-02-08T06:33:07.000Z,32.625
2018-02-08T06:43:07.000Z,32.646
2018-02-08T06:53:07.000Z,32.637
2018-02-08T07:03:07.000Z,32.607
2018-02-08T07:13:07.000Z,32.381
2018-02-08T07:23:07.000Z,32.361
2018-02-08T07:33:07.000Z,32.449
2018-02-08T07:43:07.000Z,32.333
2018-02-08T07:53:07.000Z,32.582
2018-02-08T08:03:07.000Z,32.607
2018-02-08T08:13:07.000Z,32.447
2018-02-08T08:23:07.000Z,32.341
2018-02-08T08:33:07.000Z,32.271
2018-02-08T08:43:07.000Z,32.45
2018-02-08T08:53:07.000Z,32.365
2018-02-08T09:03:07.000Z,32.247
2018-02-08T09:13:07.000Z,32.258
2018-02-08T09:23:07.000Z,31.977
2018-02-08T09:33:07.000Z,31.915
2018-02-08T09:43:07.000Z,31.557
2018-02-08T09:53:07.000Z,30.787
2018-02-08T10:03:07.000Z,30.504
2018-02-08T10:13:07.000Z,29.823
2018-02-08T10:23:07.000Z,29.563
2018-02-08T10:33:07.000Z,29.219
2018-02-08T10:43:07.000Z,28.396
2018-02-08T10:53:07.000Z,27.737
2018-02-08T11:03:08.000Z,27.098
2018-02-08T11:13:08.000Z,26.436
2018-02-08T11:23:08.000Z,26.112
2018-02-08T11:33:08.000Z,26.017
2018-02-08T11:43:08.000Z,25.496
2018-02-08T11:53:08.000Z,25.606
2018-02-08T12:03:08.000Z,25.379
2018-02-08T12:13:08.000Z,25.885
2018-02-08T12:23:08.000Z,26.092
2018-02-08T12:33:08.000Z,26.182
2018-02-08T12:43:08.000Z,26.159
2018-02-08T12:53:08.000Z,26.358
2018-02-08T13:03:08.000Z,26.519
2018-02-08T13:13:08.000Z,26.664
2018-02-08T13:23:08.000Z,26.631
2018-02-08T13:33:08.000Z,26.617
2018-02-08T13:43:08.000Z,28.282
2018-02-08T13:53:08.000Z,27.259
2018-02-08T14:03:08.000Z,27.137
2018-02-08T14:13:08.000Z,27.406
2018-02-08T14:23:08.000Z,27.578
2018-02-08T14:33:08.000Z,27.687
2018-02-08T14:43:08.000Z,27.51
2018-02-08T14:53:08.000Z,27.119
2018-02-08T15:03:08.000Z,27.016
2018-02-08T15:13:08.000Z,26.579
2018-02-08T15:23:08.000Z,26.801
2018-02-08T15:33:08.000Z,26.875
2018-02-08T15:43:08.000Z,26.864
2018-02-08T15:53:08.000Z,27.083
2018-02-08T16:03:08.000Z,26.771
2018-02-08T16:13:08.000Z,26.432
2018-02-08T16:23:08.000Z,26.802
2018-02-08T16:33:08.000Z,27.021
2018-02-08T16:43:08.000Z,27.206
2018-02-08T16:53:08.000Z,27.38
2018-02-08T17:03:09.000Z,27.402
2018-02-08T17:13:08.000Z,27.676
2018-02-08T17:23:09.000Z,28.446
2018-02-08T17:33:08.000Z,28.637
2018-02-08T17:43:08.000Z,29.065
2018-02-08T17:53:08.000Z,28.826
2018-02-08T18:03:08.000Z,28.818
2018-02-08T18:13:08.000Z,29.057
2018-02-08T18:23:08.000Z,29.088
2018-02-08T18:33:08.000Z,28.75
2018-02-08T18:43:08.000Z,27.973
2018-02-08T18:53:08.000Z,28.439
2018-02-08T19:03:08.000Z,28.263
2018-02-08T19:13:09.000Z,28.056
2018-02-08T19:23:09.000Z,27.609
2018-02-08T19:33:09.000Z,27.509
2018-02-08T19:43:09.000Z,27.737
2018-02-08T19:53:09.000Z,27.061
2018-02-08T20:03:09.000Z,27.168
2018-02-08T20:13:09.000Z,26.928
2018-02-08T20:23:09.000Z,27.08
2018-02-08T20:33:09.000Z,27.068
2018-02-08T20:43:09.000Z,27.142
2018-02-08T20:53:09.000Z,26.989
2018-02-08T21:03:09.000Z,27.107
2018-02-08T21:13:09.000Z,27.106
2018-02-08T21:23:09.000Z,26.93
2018-02-08T21:33:09.000Z,27.005
2018-02-08T21:43:09.000Z,26.864
2018-02-08T21:53:09.000Z,26.96
2018-02-08T22:03:09.000Z,26.894
2018-02-08T22:13:09.000Z,26.838
2018-02-08T22:23:09.000Z,26.87
2018-02-08T22:33:09.000Z,26.826
2018-02-08T22:53:09.000Z,27.03
2018-02-08T23:03:09.000Z,27.072
2018-02-08T23:13:09.000Z,27.179
2018-02-08T23:23:09.000Z,27.264
2018-02-08T23:33:09.000Z,27.329
2018-02-08T23:43:09.000Z,27.522
2018-02-08T23:53:09.000Z,27.456
